Time;durP1;ratioP1;P1;durP2;ratioP2;P2;SDS_P1;SDS_P2;PMS_P1;PMS_P2;Temp;Humidity;BMP_temperature;BMP_pressure;BME280_temperature;BME280_humidity;BME280_pressure;Samples;Min_cycle;Max_cycle;Signal;HPM_P1;HPM_P2
2021/12/21 00:00:12;;;;;;;5.13;4.72;;;;;;;-14.43;75.37;98847.22;6194267;23;20020;-78
2021/12/21 00:02:43;;;;;;;3.42;3.22;;;;;;;-14.47;76.00;98832.91;6226443;23;20372;-81
2021/12/21 00:05:13;;;;;;;4.90;4.50;;;;;;;-14.48;76.15;98833.69;6175262;23;20024;-78
2021/12/21 00:07:41;;;;;;;2.83;2.65;;;;;;;-14.39;75.57;98846.47;6223962;23;20071;-80
2021/12/21 00:10:07;;;;;;;4.40;3.90;;;;;;;-14.44;75.07;98843.84;6170720;23;20020;-79
2021/12/21 00:12:35;;;;;;;4.63;4.22;;;;;;;-14.53;74.40;98836.09;6193523;23;20047;-79
2021/12/21 00:15:05;;;;;;;2.63;2.50;;;;;;;-14.58;75.23;98834.25;6243909;23;20472;-80
2021/12/21 00:20:23;;;;;;;4.40;3.47;;;;;;;-14.52;75.39;98847.78;6175423;23;20024;-80
2021/12/21 00:25:20;;;;;;;2.65;2.47;;;;;;;-14.53;74.49;98850.28;6221759;23;20411;-80
2021/12/21 00:27:47;;;;;;;3.88;3.55;;;;;;;-14.63;75.67;98844.16;6224265;23;20529;-79
2021/12/21 00:30:14;;;;;;;2.38;2.28;;;;;;;-14.63;75.48;98848.31;6201240;23;20016;-79
2021/12/21 00:32:41;;;;;;;4.22;3.92;;;;;;;-14.69;74.31;98846.50;6172126;23;20043;-80
2021/12/21 00:35:07;;;;;;;3.47;3.25;;;;;;;-14.72;73.49;98851.41;6223283;23;20060;-79
2021/12/21 00:37:33;;;;;;;3.20;2.95;;;;;;;-14.77;74.44;98852.09;6219939;23;20484;-80
2021/12/21 00:40:00;;;;;;;3.92;3.60;;;;;;;-14.73;75.03;98858.88;6225857;23;20017;-80
2021/12/21 00:42:26;;;;;;;4.30;4.00;;;;;;;-14.85;74.77;98845.19;6223930;23;20545;-80
2021/12/21 00:44:52;;;;;;;3.00;2.85;;;;;;;-14.79;74.69;98856.22;6198769;23;20017;-79
2021/12/21 00:47:18;;;;;;;4.57;4.18;;;;;;;-14.81;74.11;98860.31;6226730;23;20021;-80
2021/12/21 00:49:46;;;;;;;3.95;2.92;;;;;;;-14.83;73.65;98857.78;6224342;23;20027;-79
2021/12/21 00:52:15;;;;;;;3.70;3.40;;;;;;;-14.99;74.53;98836.47;6220782;23;20110;-78
2021/12/21 00:54:41;;;;;;;5.00;3.92;;;;;;;-14.83;74.16;98866.94;6193685;23;20021;-79
2021/12/21 00:57:08;;;;;;;3.90;3.70;;;;;;;-14.85;74.51;98880.25;6218262;23;20024;-80
2021/12/21 00:59:34;;;;;;;2.55;2.35;;;;;;;-14.83;73.45;98859.44;6170394;23;20046;-80
2021/12/21 01:02:01;;;;;;;4.57;4.18;;;;;;;-14.88;72.82;98851.78;6197167;23;20021;-79
2021/12/21 01:04:34;;;;;;;3.80;3.40;;;;;;;-14.96;72.66;98859.09;6215539;23;20039;-79
2021/12/21 01:07:06;;;;;;;5.65;3.67;;;;;;;-14.94;73.05;98866.63;6215714;23;20381;-78
2021/12/21 01:12:06;;;;;;;3.97;3.55;;;;;;;-15.08;72.33;98857.88;6163985;23;20048;-79
2021/12/21 01:19:47;;;;;;;4.85;4.45;;;;;;;-15.05;71.16;98866.28;6229721;23;20021;-80
2021/12/21 01:27:29;;;;;;;2.53;2.42;;;;;;;-15.02;72.20;98883.94;6223130;23;20025;-81
2021/12/21 01:35:30;;;;;;;2.80;2.60;;;;;;;-15.04;71.93;98875.50;6203922;23;20054;-80
2021/12/21 01:40:35;;;;;;;2.90;2.72;;;;;;;-15.10;73.20;98885.34;6200571;23;20542;-80
2021/12/21 01:51:06;;;;;;;3.08;2.97;;;;;;;-15.02;72.26;98881.44;6193554;23;20021;-80
2021/12/21 01:53:33;;;;;;;3.47;3.22;;;;;;;-15.05;72.13;98896.31;6220197;23;20031;-80
2021/12/21 01:55:59;;;;;;;4.25;3.95;;;;;;;-15.11;71.90;98880.28;6197357;23;20020;-80
2021/12/21 01:58:25;;;;;;;4.38;4.00;;;;;;;-15.04;72.46;98898.03;6223244;23;20024;-80
2021/12/21 02:00:51;;;;;;;4.38;3.85;;;;;;;-15.11;72.25;98882.78;6169590;23;20090;-80
2021/12/21 02:03:18;;;;;;;3.67;3.47;;;;;;;-15.11;71.57;98888.63;6168965;23;20016;-79
2021/12/21 02:05:44;;;;;;;3.42;3.20;;;;;;;-15.09;70.71;98899.56;6225254;23;20035;-80
2021/12/21 02:08:10;;;;;;;2.67;2.50;;;;;;;-15.09;70.40;98912.06;6198595;23;20088;-79
2021/12/21 02:10:36;;;;;;;2.40;2.30;;;;;;;-15.17;70.55;98885.94;6144491;23;20016;-79
2021/12/21 02:13:02;;;;;;;2.75;2.58;;;;;;;-15.15;71.49;98911.03;6218473;23;20016;-80
2021/12/21 02:15:29;;;;;;;3.15;2.88;;;;;;;-15.19;70.61;98892.56;6219062;23;20012;-79
2021/12/21 02:20:42;;;;;;;9.45;3.65;;;;;;;-15.29;70.21;98884.75;6219675;23;20051;-80
2021/12/21 02:23:16;;;;;;;3.42;3.13;;;;;;;-15.24;69.88;98898.22;6202992;23;20024;-80
2021/12/21 02:30:49;;;;;;;3.42;3.17;;;;;;;-15.23;70.06;98929.94;6223421;23;20076;-79
2021/12/21 02:33:16;;;;;;;2.60;2.50;;;;;;;-15.32;70.05;98912.16;6225857;23;20029;-80
2021/12/21 02:35:42;;;;;;;3.80;3.50;;;;;;;-15.33;70.71;98923.81;6223706;23;20027;-80
2021/12/21 02:38:09;;;;;;;2.35;2.25;;;;;;;-15.32;71.12;98934.66;6179665;23;20024;-81
2021/12/21 02:40:35;;;;;;;3.58;3.28;;;;;;;-15.32;70.41;98935.50;6202179;23;20068;-81
2021/12/21 02:43:03;;;;;;;4.18;3.80;;;;;;;-15.40;70.33;98930.25;6227369;23;20148;-80
2021/12/21 02:45:29;;;;;;;3.55;3.35;;;;;;;-15.42;70.33;98936.03;6197929;23;20020;-80
2021/12/21 02:47:56;;;;;;;3.28;3.08;;;;;;;-15.37;70.12;98920.34;6221089;23;20020;-80
2021/12/21 02:50:22;;;;;;;2.83;2.60;;;;;;;-15.42;70.16;98916.88;6222433;23;20024;-80
2021/12/21 02:52:48;;;;;;;2.50;2.33;;;;;;;-15.42;70.73;98916.03;6195582;23;20024;-80
2021/12/21 02:55:14;;;;;;;8.10;3.22;;;;;;;-15.43;70.29;98926.81;6225135;23;20455;-80
2021/12/21 02:57:40;;;;;;;3.45;2.85;;;;;;;-15.43;69.97;98927.66;6228204;23;20027;-81
2021/12/21 03:00:08;;;;;;;4.28;3.40;;;;;;;-15.40;70.35;98941.91;6199830;23;20083;-80
2021/12/21 03:02:34;;;;;;;3.22;3.03;;;;;;;-15.38;69.81;98932.81;6222517;23;20023;-79
2021/12/21 03:05:00;;;;;;;2.72;2.53;;;;;;;-15.38;70.33;98936.16;6227240;23;20020;-80
2021/12/21 03:10:01;;;;;;;1.98;1.88;;;;;;;-15.35;70.12;98947.94;6225712;23;20021;-79
2021/12/21 03:14:54;;;;;;;2.85;2.70;;;;;;;-15.50;69.33;98924.94;6199924;23;20016;-79
2021/12/21 03:17:21;;;;;;;2.78;2.65;;;;;;;-15.39;70.01;98949.47;6196732;23;20028;-79
2021/12/21 03:19:47;;;;;;;2.75;2.55;;;;;;;-15.41;69.73;98950.22;6196530;23;20047;-80
2021/12/21 03:22:14;;;;;;;2.58;2.47;;;;;;;-15.39;69.93;98951.13;6179146;23;20024;-80
2021/12/21 03:24:42;;;;;;;2.17;2.08;;;;;;;-15.48;69.96;98938.38;6223627;23;20017;-79
2021/12/21 03:27:08;;;;;;;3.38;3.10;;;;;;;-15.41;70.28;98966.06;6202778;23;20020;-80
2021/12/21 03:29:34;;;;;;;3.42;3.00;;;;;;;-15.45;69.92;98965.94;6223755;23;20032;-79
2021/12/21 03:32:01;;;;;;;4.35;3.35;;;;;;;-15.42;70.03;98951.03;6224633;23;20075;-79
2021/12/21 03:34:27;;;;;;;2.75;2.55;;;;;;;-15.47;70.07;98955.00;6225115;23;20021;-79
2021/12/21 03:36:54;;;;;;;3.50;3.20;;;;;;;-15.49;69.67;98946.66;6225675;23;20021;-80
2021/12/21 03:39:22;;;;;;;4.80;3.25;;;;;;;-15.48;70.46;98963.38;6200561;23;20024;-80
2021/12/21 03:41:53;;;;;;;4.07;3.60;;;;;;;-15.57;71.24;98948.06;6226658;23;20021;-80
2021/12/21 03:44:20;;;;;;;3.42;3.15;;;;;;;-15.52;71.24;98962.41;6202339;23;20017;-81
2021/12/21 03:46:49;;;;;;;3.55;3.35;;;;;;;-15.54;71.14;98959.00;6177103;23;20050;-80
2021/12/21 03:52:06;;;;;;;5.13;3.30;;;;;;;-15.42;72.14;98978.53;6202101;23;20027;-80
2021/12/21 03:54:32;;;;;;;3.70;3.42;;;;;;;-15.38;71.60;98970.34;6228147;23;20020;-80
2021/12/21 03:57:00;;;;;;;2.30;2.20;;;;;;;-15.40;71.62;98982.78;6253091;23;20027;-80
2021/12/21 03:59:26;;;;;;;2.75;2.35;;;;;;;-15.38;72.05;98988.66;6201982;23;20035;-80
2021/12/21 04:01:53;;;;;;;3.65;3.45;;;;;;;-15.42;71.83;98984.38;6227008;23;20039;-80
2021/12/21 04:04:20;;;;;;;2.75;2.63;;;;;;;-15.42;71.49;98971.03;6204907;23;20487;-82
2021/12/21 04:06:46;;;;;;;2.88;2.75;;;;;;;-15.39;72.49;98984.47;6205833;23;20688;-81
2021/12/21 04:09:12;;;;;;;3.85;2.60;;;;;;;-15.39;71.88;98983.63;6204583;23;20016;-80
2021/12/21 04:11:38;;;;;;;2.92;2.72;;;;;;;-15.41;72.09;98990.25;6218361;23;20016;-76
2021/12/21 04:14:05;;;;;;;2.28;2.17;;;;;;;-15.34;72.05;98999.63;6160770;23;20017;-75
2021/12/21 04:16:31;;;;;;;2.63;2.53;;;;;;;-15.37;71.47;98982.88;6211472;23;20024;-76
2021/12/21 04:18:57;;;;;;;2.97;2.80;;;;;;;-15.35;71.89;98982.94;6180107;23;20124;-78
2021/12/21 04:21:23;;;;;;;4.57;4.18;;;;;;;-15.39;71.27;98986.13;6180458;23;20412;-78
2021/12/21 04:23:49;;;;;;;3.47;3.17;;;;;;;-15.39;71.84;98988.63;6210091;23;20016;-77
2021/12/21 04:26:15;;;;;;;3.22;2.95;;;;;;;-15.44;69.84;99000.13;6210821;23;20020;-79
2021/12/21 04:28:41;;;;;;;2.90;2.70;;;;;;;-15.45;69.60;98993.44;6188293;23;20044;-80
2021/12/21 04:31:07;;;;;;;4.18;3.83;;;;;;;-15.45;70.13;98998.44;6217196;23;20017;-81
2021/12/21 04:33:33;;;;;;;2.47;2.38;;;;;;;-15.41;70.41;98995.25;6246717;23;20016;-80
2021/12/21 04:36:00;;;;;;;4.15;3.67;;;;;;;-15.47;71.02;99000.88;6166070;23;20499;-80
2021/12/21 04:38:31;;;;;;;2.95;2.75;;;;;;;-15.39;70.83;99007.00;6197420;23;20047;-82
2021/12/21 04:41:06;;;;;;;2.35;2.15;;;;;;;-15.41;70.89;99005.25;6253521;23;20012;-81
2021/12/21 04:43:33;;;;;;;3.33;3.13;;;;;;;-15.43;70.76;99017.69;6202040;23;20016;-80
2021/12/21 04:45:59;;;;;;;3.55;3.35;;;;;;;-15.52;70.57;99001.56;6225968;23;20482;-80
2021/12/21 04:48:26;;;;;;;3.33;3.03;;;;;;;-15.46;70.86;99019.22;6217281;23;20021;-77
2021/12/21 04:50:52;;;;;;;2.88;2.78;;;;;;;-15.48;71.04;99019.22;6210855;23;20309;-77
2021/12/21 04:53:18;;;;;;;7.63;2.67;;;;;;;-15.44;71.28;99025.97;6162132;23;20016;-79
2021/12/21 04:55:45;;;;;;;3.53;3.17;;;;;;;-15.49;71.25;99019.16;6163544;23;20013;-78
2021/12/21 04:58:12;;;;;;;2.83;2.63;;;;;;;-15.46;71.25;99021.72;6213546;23;20028;-77
2021/12/21 05:00:38;;;;;;;4.97;3.03;;;;;;;-15.53;71.70;99014.84;6212934;23;20016;-77
2021/12/21 05:03:05;;;;;;;4.03;2.40;;;;;;;-15.45;71.64;99026.78;6160105;23;20090;-79
2021/12/21 05:05:32;;;;;;;3.20;3.00;;;;;;;-15.43;72.56;99036.84;6187447;23;20513;-78
2021/12/21 05:08:18;;;;;;;3.25;3.05;;;;;;;-15.43;71.46;99040.19;6213305;23;20222;-78
2021/12/21 05:10:52;;;;;;;15.55;3.78;;;;;;;-15.43;71.20;99029.31;6165828;23;20075;-77
2021/12/21 05:13:21;;;;;;;3.65;2.58;;;;;;;-15.43;71.37;99042.69;6211473;23;20020;-78
2021/12/21 05:15:47;;;;;;;2.55;2.42;;;;;;;-15.39;70.89;99044.50;6213066;23;20384;-77
2021/12/21 05:18:13;;;;;;;3.10;2.90;;;;;;;-15.45;70.64;99048.44;6215329;23;20023;-78
2021/12/21 05:20:40;;;;;;;3.10;2.90;;;;;;;-15.38;71.38;99046.19;6185466;23;20079;-78
2021/12/21 05:23:06;;;;;;;3.00;2.83;;;;;;;-15.41;71.91;99037.75;6216009;23;20021;-78
2021/12/21 05:25:32;;;;;;;3.85;3.55;;;;;;;-15.39;71.57;99052.00;6163115;23;20016;-77
2021/12/21 05:27:58;;;;;;;3.28;3.03;;;;;;;-15.45;71.42;99043.44;6214870;23;20024;-78
2021/12/21 05:30:26;;;;;;;2.85;2.65;;;;;;;-15.38;71.13;99055.34;6140894;23;20084;-78
2021/12/21 05:32:53;;;;;;;3.58;3.05;;;;;;;-15.46;70.73;99052.59;6240316;23;20017;-78
2021/12/21 05:35:19;;;;;;;8.63;3.28;;;;;;;-15.45;71.98;99050.94;6164006;23;20521;-79
2021/12/21 05:37:47;;;;;;;3.38;3.17;;;;;;;-15.45;71.58;99050.94;6188224;23;20028;-79
2021/12/21 05:40:17;;;;;;;5.10;3.70;;;;;;;-15.49;71.72;99066.66;6186177;23;20017;-76
2021/12/21 05:42:47;;;;;;;3.45;3.25;;;;;;;-15.48;71.59;99059.22;6209209;23;20023;-78
2021/12/21 05:45:15;;;;;;;1.98;1.88;;;;;;;-15.42;71.11;99066.03;6161234;23;20437;-78
2021/12/21 05:47:42;;;;;;;3.10;2.90;;;;;;;-15.47;70.40;99055.88;6185535;23;20031;-78
2021/12/21 05:50:14;;;;;;;3.55;3.35;;;;;;;-15.45;70.41;99070.94;6186508;23;20448;-78
2021/12/21 05:52:40;;;;;;;3.22;3.03;;;;;;;-15.50;71.14;99073.31;6212667;23;20012;-77
2021/12/21 05:55:07;;;;;;;6.07;2.63;;;;;;;-15.45;71.10;99073.44;6185600;23;20471;-77
2021/12/21 05:57:34;;;;;;;2.75;2.65;;;;;;;-15.52;71.22;99069.91;6186025;23;20071;-78
2021/12/21 06:00:00;;;;;;;5.60;4.13;;;;;;;-15.47;70.87;99072.53;6213520;23;20023;-80
2021/12/21 06:02:26;;;;;;;4.55;4.15;;;;;;;-15.52;71.24;99061.56;6213276;23;20016;-79
2021/12/21 06:04:52;;;;;;;3.42;3.10;;;;;;;-15.47;71.71;99085.03;6186644;23;20016;-78
2021/12/21 06:07:19;;;;;;;3.65;3.45;;;;;;;-15.41;71.37;99076.09;6234799;23;20021;-76
2021/12/21 06:09:47;;;;;;;2.55;2.35;;;;;;;-15.44;71.40;99080.13;6186043;23;20021;-77
2021/12/21 06:12:29;;;;;;;3.78;3.28;;;;;;;-15.46;71.31;99086.75;6236280;23;20055;-78
2021/12/21 06:28:07;;;;;;;4.20;3.90;;;;;;;-15.25;71.63;99101.63;6187985;23;20020;-75
2021/12/21 06:30:34;;;;;;;2.97;2.78;;;;;;;-15.28;71.63;99102.38;6187685;23;20025;-75
2021/12/21 06:33:25;;;;;;;4.28;3.95;;;;;;;-15.33;70.84;99103.00;6210872;23;20050;-75
2021/12/21 06:35:51;;;;;;;3.22;3.03;;;;;;;-15.37;71.58;99102.91;6211096;23;20024;-74
2021/12/21 06:38:17;;;;;;;4.25;3.90;;;;;;;-15.33;70.96;99106.38;6158559;23;20475;-77
2021/12/21 06:40:44;;;;;;;4.97;4.45;;;;;;;-15.46;71.15;99106.75;6160787;23;20027;-77
2021/12/21 06:43:15;;;;;;;4.78;3.35;;;;;;;-15.29;71.16;99112.31;6234876;23;20522;-75
2021/12/21 06:46:05;;;;;;;;;;;;;;;-15.35;69.61;99115.47;6212542;23;20025;-75
2021/12/21 06:51:21;;;;;;;3.10;2.90;;;;;;;-15.27;70.09;99115.72;6212318;23;20029;-75
2021/12/21 06:53:49;;;;;;;3.13;2.92;;;;;;;-15.29;69.90;99120.69;6162967;23;20024;-75
2021/12/21 06:56:16;;;;;;;3.88;3.58;;;;;;;-15.23;69.81;99110.03;6211858;23;20024;-76
2021/12/21 06:58:42;;;;;;;3.83;3.58;;;;;;;-15.12;69.94;99119.63;6235308;23;20016;-76
2021/12/21 07:01:08;;;;;;;3.72;2.95;;;;;;;-15.07;70.33;99125.63;6235399;23;20016;-76
2021/12/21 07:03:35;;;;;;;6.35;4.75;;;;;;;-15.14;70.02;99118.69;6211264;23;20027;-76
2021/12/21 07:06:02;;;;;;;3.75;2.47;;;;;;;-15.10;69.97;99127.16;6211305;23;20043;-76
2021/12/21 07:08:31;;;;;;;2.83;2.70;;;;;;;-15.19;70.34;99126.84;6209457;23;20024;-76
2021/12/21 07:11:37;;;;;;;7.18;4.88;;;;;;;-15.16;70.96;99127.81;6185239;23;20024;-77
2021/12/21 07:19:20;;;;;;;3.88;3.60;;;;;;;-15.11;71.15;99136.31;6211696;23;20103;-77
2021/12/21 07:21:46;;;;;;;4.93;4.53;;;;;;;-15.07;70.34;99148.13;6234854;23;20027;-77
2021/12/21 07:24:12;;;;;;;4.53;4.13;;;;;;;-15.17;71.19;99136.09;6211148;23;20044;-76
2021/12/21 07:26:38;;;;;;;3.60;2.80;;;;;;;-15.10;71.45;99133.03;6211966;23;20104;-76
2021/12/21 07:29:05;;;;;;;3.95;3.65;;;;;;;-15.07;70.38;99138.13;6211821;23;20070;-76
2021/12/21 07:31:31;;;;;;;3.65;3.35;;;;;;;-15.03;69.63;99129.94;6184974;23;20016;-77
2021/12/21 07:33:58;;;;;;;3.38;3.13;;;;;;;-15.05;70.15;99150.69;6211072;23;20353;-76
2021/12/21 07:36:26;;;;;;;3.78;3.58;;;;;;;-15.09;70.41;99139.75;6185060;23;20048;-76
2021/12/21 07:39:20;;;;;;;5.68;5.07;;;;;;;-15.05;70.68;99150.69;6186047;23;20107;-76
2021/12/21 07:41:46;;;;;;;6.05;4.32;;;;;;;-15.14;70.34;99151.22;6211913;23;20020;-77
2021/12/21 07:44:13;;;;;;;3.88;3.58;;;;;;;-15.05;70.27;99154.03;6159375;23;20032;-77
2021/12/21 07:46:40;;;;;;;3.50;3.30;;;;;;;-15.08;70.87;99141.41;6211253;23;20016;-77
2021/12/21 07:49:06;;;;;;;5.28;4.75;;;;;;;-14.99;70.41;99146.75;6134354;23;20025;-76
2021/12/21 07:51:32;;;;;;;6.65;5.00;;;;;;;-15.11;71.25;99146.31;6210279;23;20024;-77
2021/12/21 07:53:59;;;;;;;4.38;4.00;;;;;;;-14.99;71.61;99156.78;6183286;23;20046;-77
2021/12/21 07:56:25;;;;;;;7.65;3.88;;;;;;;-14.97;70.97;99150.16;6184968;23;20020;-77
2021/12/21 07:58:51;;;;;;;3.78;2.50;;;;;;;-14.87;72.05;99153.81;6235855;23;20020;-78
2021/12/21 08:01:18;;;;;;;4.45;3.20;;;;;;;-14.86;70.86;99155.53;6211894;23;20378;-76
2021/12/21 08:03:44;;;;;;;7.65;3.95;;;;;;;-14.87;71.33;99147.16;6212592;23;20155;-76
2021/12/21 08:06:12;;;;;;;4.57;4.22;;;;;;;-14.93;71.36;99161.97;6212518;23;20021;-77
2021/12/21 08:08:42;;;;;;;5.40;4.85;;;;;;;-14.99;71.03;99156.78;6211245;23;20020;-76
2021/12/21 08:13:38;;;;;;;10.35;6.22;;;;;;;-15.06;71.40;99156.50;6187853;23;20372;-74
2021/12/21 08:16:04;;;;;;;8.38;4.93;;;;;;;-14.97;70.67;99165.16;6238711;23;20097;-77
2021/12/21 08:18:30;;;;;;;2.45;2.35;;;;;;;-14.98;71.86;99163.47;6162865;23;20024;-74
2021/12/21 08:20:57;;;;;;;5.03;4.53;;;;;;;-15.06;71.00;99169.88;6213968;23;20427;-75
2021/12/21 08:23:29;;;;;;;5.22;4.47;;;;;;;-15.01;71.17;99168.34;6186101;23;20021;-75
2021/12/21 08:25:56;;;;;;;7.68;4.28;;;;;;;-15.04;71.28;99173.25;6186679;23;20055;-75
2021/12/21 08:28:23;;;;;;;4.18;3.53;;;;;;;-15.03;72.08;99177.47;6212227;23;20243;-75
2021/12/21 08:30:50;;;;;;;5.47;4.93;;;;;;;-15.01;71.49;99175.88;6212994;23;20471;-77
2021/12/21 08:33:18;;;;;;;5.82;5.32;;;;;;;-15.01;71.84;99170.84;6212721;23;20048;-75
2021/12/21 08:35:46;;;;;;;6.68;4.15;;;;;;;-14.93;71.78;99166.97;6189124;23;20028;-77
2021/12/21 08:38:15;;;;;;;5.65;5.15;;;;;;;-14.95;71.48;99168.56;6224707;23;20029;-78
2021/12/21 08:40:43;;;;;;;3.80;3.40;;;;;;;-15.03;72.21;99174.97;6202161;23;20068;-80
2021/12/21 08:43:13;;;;;;;16.08;3.60;;;;;;;-14.97;72.63;99169.31;6223668;23;20663;-79
2021/12/21 08:45:40;;;;;;;7.25;4.60;;;;;;;-15.09;71.96;99174.75;6140091;23;20020;-78
2021/12/21 08:48:09;;;;;;;2.90;2.67;;;;;;;-14.92;72.33;99172.84;6186985;23;20043;-78
2021/12/21 08:50:36;;;;;;;4.88;4.45;;;;;;;-14.97;72.51;99175.19;6214116;23;20014;-78
2021/12/21 08:53:03;;;;;;;4.40;4.10;;;;;;;-14.91;73.46;99180.38;6188079;23;20027;-79
2021/12/21 08:55:29;;;;;;;5.90;5.03;;;;;;;-15.03;71.10;99164.97;6237636;23;20020;-78
2021/12/21 08:57:55;;;;;;;5.13;4.63;;;;;;;-14.98;71.48;99180.13;6188085;23;20126;-78
2021/12/21 09:00:21;;;;;;;7.68;4.40;;;;;;;-14.98;70.73;99173.47;6221355;23;20025;-78
2021/12/21 09:02:50;;;;;;;9.13;4.65;;;;;;;-14.96;72.34;99171.88;6196169;23;20511;-77
2021/12/21 09:05:19;;;;;;;3.25;3.05;;;;;;;-14.86;71.70;99183.91;6207848;23;20111;-75
2021/12/21 09:07:49;;;;;;;3.92;3.63;;;;;;;-14.68;71.06;99178.66;6211293;23;20045;-74
2021/12/21 09:10:16;;;;;;;2.83;2.65;;;;;;;-14.68;69.89;99172.78;6210711;23;20048;-75
2021/12/21 09:12:43;;;;;;;2.70;2.60;;;;;;;-14.67;69.27;99182.00;6210377;23;20017;-74
2021/12/21 09:15:09;;;;;;;9.55;5.72;;;;;;;-14.85;69.42;99180.59;6136126;23;20025;-74
2021/12/21 09:17:35;;;;;;;3.03;2.83;;;;;;;-14.74;70.08;99173.44;6185737;23;20025;-74
2021/12/21 09:20:03;;;;;;;2.72;2.60;;;;;;;-14.73;69.32;99176.81;6136481;23;20023;-74
2021/12/21 09:22:29;;;;;;;4.28;3.92;;;;;;;-14.70;68.42;99175.25;6211778;23;20016;-75
2021/12/21 09:24:57;;;;;;;5.43;3.88;;;;;;;-14.82;69.15;99174.84;6186050;23;20075;-75
2021/12/21 09:27:23;;;;;;;6.50;4.55;;;;;;;-14.89;69.92;99183.81;6211123;23;20075;-79
2021/12/21 09:29:50;;;;;;;3.90;3.47;;;;;;;-14.67;70.41;99184.50;6160871;23;20020;-76
2021/12/21 09:32:18;;;;;;;2.75;2.60;;;;;;;-14.69;69.42;99171.09;6210936;23;20035;-76
2021/12/21 09:34:44;;;;;;;6.57;4.68;;;;;;;-14.85;69.70;99187.25;6211904;23;20024;-76
2021/12/21 09:37:15;;;;;;;6.43;3.70;;;;;;;-14.92;68.64;99168.66;6185969;23;20028;-75
2021/12/21 09:39:43;;;;;;;3.08;2.88;;;;;;;-14.92;69.26;99177.84;6212343;23;20456;-77
2021/12/21 09:42:16;;;;;;;4.15;3.85;;;;;;;-14.80;68.77;99178.25;6161171;23;20024;-77
2021/12/21 09:44:42;;;;;;;4.07;3.72;;;;;;;-14.72;68.79;99186.03;6212900;23;20440;-77
2021/12/21 09:47:10;;;;;;;5.13;4.70;;;;;;;-14.85;68.72;99178.09;6212675;23;20021;-77
2021/12/21 09:49:37;;;;;;;3.17;2.97;;;;;;;-14.86;68.42;99181.41;6212009;23;20486;-78
2021/12/21 09:52:05;;;;;;;4.70;4.30;;;;;;;-14.85;68.88;99187.25;6214657;23;20080;-78
2021/12/21 09:54:32;;;;;;;3.58;3.28;;;;;;;-14.87;67.53;99182.19;6162444;23;20028;-77
2021/12/21 09:56:58;;;;;;;4.43;4.00;;;;;;;-14.88;67.17;99180.50;6213629;23;20051;-78
2021/12/21 09:59:25;;;;;;;5.05;4.60;;;;;;;-14.77;66.95;99185.88;6186337;23;20046;-77
2021/12/21 10:01:51;;;;;;;9.18;4.53;;;;;;;-14.77;66.95;99182.50;6212938;23;20017;-76
2021/12/21 10:04:18;;;;;;;5.90;4.53;;;;;;;-14.73;67.33;99175.16;6209952;23;20453;-77
2021/12/21 10:06:47;;;;;;;4.35;4.05;;;;;;;-14.71;67.42;99193.56;6185653;23;20020;-77
2021/12/21 10:09:13;;;;;;;3.65;3.45;;;;;;;-14.57;67.93;99186.53;6212941;23;20008;-77
2021/12/21 10:11:44;;;;;;;5.85;3.88;;;;;;;-14.79;68.37;99179.97;6190539;23;20055;-79
2021/12/21 10:14:11;;;;;;;8.15;4.00;;;;;;;-14.71;68.27;99192.72;6190453;23;20013;-79
2021/12/21 10:16:37;;;;;;;4.65;3.33;;;;;;;-14.68;68.88;99192.81;6189150;23;20056;-79
2021/12/21 10:19:05;;;;;;;4.80;4.15;;;;;;;-14.66;68.86;99183.72;6192301;23;20059;-79
2021/12/21 10:21:31;;;;;;;9.70;4.47;;;;;;;-14.78;68.96;99183.28;6220126;23;20024;-78
2021/12/21 10:23:57;;;;;;;4.45;4.05;;;;;;;-14.80;68.54;99169.88;6221191;23;20079;-79
2021/12/21 10:26:29;;;;;;;6.95;4.30;;;;;;;-14.63;68.36;99186.34;6167592;23;20022;-78
2021/12/21 10:29:05;;;;;;;3.95;3.65;;;;;;;-14.79;69.12;99189.97;6214639;23;20028;-77
2021/12/21 10:31:36;;;;;;;5.03;4.53;;;;;;;-14.79;69.47;99189.97;6191049;23;20078;-78
2021/12/21 10:34:04;;;;;;;4.60;3.80;;;;;;;-14.84;69.08;99196.47;6165388;23;20016;-78
2021/12/21 10:36:30;;;;;;;6.45;5.45;;;;;;;-14.91;69.62;99192.91;6188545;23;20270;-77
2021/12/21 10:38:58;;;;;;;6.78;5.30;;;;;;;-14.88;70.32;99200.50;6216909;23;20025;-78
2021/12/21 10:41:45;;;;;;;4.72;4.32;;;;;;;-14.85;70.28;99190.59;6224436;23;20072;-79
2021/12/21 10:44:19;;;;;;;4.85;4.43;;;;;;;-14.77;70.91;99192.53;6210647;23;20020;-77
2021/12/21 10:46:50;;;;;;;7.03;5.32;;;;;;;-14.81;70.85;99194.06;6234444;23;20020;-79
2021/12/21 10:49:19;;;;;;;6.05;3.97;;;;;;;-14.72;71.56;99196.03;6228360;23;20095;-78
2021/12/21 10:51:58;;;;;;;3.63;3.33;;;;;;;-14.76;71.28;99189.22;6224486;23;20055;-78
2021/12/21 10:54:44;;;;;;;4.47;3.92;;;;;;;-14.82;71.71;99184.00;6225457;23;20017;-78
2021/12/21 10:57:22;;;;;;;5.68;5.18;;;;;;;-14.73;71.56;99185.16;6235250;23;20005;-76
2021/12/21 10:59:50;;;;;;;5.75;4.50;;;;;;;-14.69;72.36;99192.00;6210814;23;20028;-77
2021/12/21 11:02:31;;;;;;;9.23;7.03;;;;;;;-14.71;72.56;99182.72;6234944;23;20009;-77
2021/12/21 11:05:10;;;;;;;;;;;;;;;-14.75;73.32;99190.94;6233981;23;20018;-78
2021/12/21 11:07:48;;;;;;;6.38;4.85;;;;;;;-14.72;72.65;99191.88;6205731;23;19919;-76
2021/12/21 11:10:26;;;;;;;8.68;5.13;;;;;;;-14.68;72.98;99192.81;6184163;23;20051;-75
2021/12/21 11:13:00;;;;;;;4.60;3.97;;;;;;;-14.69;72.72;99194.50;6206660;23;20020;-79
2021/12/21 11:15:37;;;;;;;4.78;4.45;;;;;;;-14.69;72.68;99201.16;6206892;23;20020;-80
2021/12/21 11:18:16;;;;;;;5.88;4.10;;;;;;;-14.68;72.63;99205.34;6207612;23;20024;-77
2021/12/21 11:20:45;;;;;;;13.68;5.65;;;;;;;-14.75;71.44;99219.31;6236181;23;20386;-77
2021/12/21 11:23:12;;;;;;;4.13;3.75;;;;;;;-14.67;72.46;99220.44;6233347;23;20071;-75
2021/12/21 11:25:41;;;;;;;3.55;3.10;;;;;;;-14.73;72.76;99216.88;6228440;23;20020;-75
2021/12/21 11:28:07;;;;;;;4.97;4.57;;;;;;;-14.86;73.26;99215.59;6236356;23;20020;-79
2021/12/21 11:30:34;;;;;;;13.02;4.40;;;;;;;-14.72;72.58;99231.09;6182016;23;20021;-77
2021/12/21 11:33:02;;;;;;;5.80;5.13;;;;;;;-14.73;72.75;99216.88;6207028;23;20076;-77
2021/12/21 11:38:09;;;;;;;2.75;2.65;;;;;;;-14.69;72.61;99212.03;6207781;23;20186;-78
2021/12/21 11:40:38;;;;;;;4.95;4.47;;;;;;;-14.75;72.16;99224.31;6233015;23;20016;-78
2021/12/21 11:43:23;;;;;;;5.28;4.88;;;;;;;-14.76;72.60;99224.28;6207826;23;20020;-78
2021/12/21 11:45:58;;;;;;;6.85;5.60;;;;;;;-14.85;73.43;99234.81;6202913;23;20017;-76
2021/12/21 11:48:49;;;;;;;5.60;5.03;;;;;;;-14.79;73.81;99229.19;6228903;23;20036;-79
2021/12/21 11:51:15;;;;;;;3.80;3.40;;;;;;;-14.92;73.75;99238.75;6230107;23;20108;-79
2021/12/21 11:53:41;;;;;;;15.63;6.25;;;;;;;-14.87;73.23;99241.41;6230115;23;20017;-80
2021/12/21 11:56:08;;;;;;;4.45;3.90;;;;;;;-14.86;74.80;99249.00;6203611;23;20016;-79
2021/12/21 11:58:39;;;;;;;5.50;3.25;;;;;;;-14.84;74.92;99246.53;6200289;23;20020;-79
2021/12/21 12:01:13;;;;;;;5.75;4.97;;;;;;;-14.79;75.96;99249.19;6220102;23;20017;-81
2021/12/21 12:03:44;;;;;;;6.45;4.60;;;;;;;-14.81;75.68;99254.13;6220370;23;20020;-81
2021/12/21 12:06:14;;;;;;;;;;;;;;;-14.91;75.67;99260.47;6225759;23;20027;-78
2021/12/21 12:08:49;;;;;;;4.35;3.17;;;;;;;-14.95;74.64;99252.81;6201850;23;19916;-81
2021/12/21 12:11:27;;;;;;;9.07;5.30;;;;;;;-14.80;75.69;99260.84;6229739;23;20115;-79
2021/12/21 12:14:10;;;;;;;7.95;5.05;;;;;;;-14.86;74.80;99269.00;6201859;23;20016;-80
2021/12/21 12:16:48;;;;;;;9.48;5.88;;;;;;;-14.89;75.14;99268.06;6227127;23;20020;-81
2021/12/21 12:19:19;;;;;;;5.97;5.20;;;;;;;-14.98;75.84;99272.72;6227076;23;20027;-80
2021/12/21 12:21:57;;;;;;;6.43;4.33;;;;;;;-14.94;75.85;99272.88;6196177;23;20087;-79
2021/12/21 12:24:26;;;;;;;9.05;7.30;;;;;;;-14.93;75.47;99274.59;6121356;23;20116;-78
2021/12/21 12:26:57;;;;;;;10.80;6.30;;;;;;;-14.94;75.43;99270.38;6190767;23;20027;-80
2021/12/21 12:29:25;;;;;;;6.72;5.38;;;;;;;-14.95;74.88;99276.16;6224855;23;20020;-78
2021/12/21 12:32:04;;;;;;;4.18;3.53;;;;;;;-14.95;74.39;99277.84;6194546;23;20021;-79
2021/12/21 12:34:32;;;;;;;5.82;4.68;;;;;;;-15.01;74.91;99277.59;6192989;23;20500;-81
2021/12/21 12:36:59;;;;;;;7.80;6.53;;;;;;;-14.97;74.46;99290.28;6220142;23;20028;-78
2021/12/21 12:39:44;;;;;;;4.43;3.33;;;;;;;-15.01;74.52;99293.47;6243120;23;20096;-79
2021/12/21 12:42:22;;;;;;;6.45;5.68;;;;;;;-15.08;73.96;99286.53;6225049;23;20023;-80
2021/12/21 12:44:50;;;;;;;6.22;5.63;;;;;;;-15.07;74.11;99295.75;6173886;23;20263;-79
2021/12/21 12:47:17;;;;;;;4.82;4.43;;;;;;;-15.05;75.01;99311.66;6222241;23;20024;-78
2021/12/21 12:49:54;;;;;;;6.95;5.43;;;;;;;-15.09;74.74;99307.38;6231097;23;20017;-82